This is the latest recevied weather packets stored in our database for station/object YO8RXT-3. If no packets are shown the sender has not sent any weather packets the latest 10 day(s).
| Time | Temp. | Humidity | Pressure | Rain* | Wind** | Luminosity | Snow |
|---|---|---|---|---|---|---|---|
| 1777523702 | 3.89° C | 61% | 1026 hPa | - | - | - | - |
| 1777521903 | 2.78° C | 65% | 1025 hPa | - | - | - | - |
| 1777520103 | 2.78° C | 65% | 1025 hPa | - | - | - | - |
| 1777518303 | 2.78° C | 65% | 1025 hPa | - | - | - | - |
| 1777516503 | 5° C | 53% | 1024 hPa | - | - | - | - |
| 1777514702 | 5° C | 53% | 1024 hPa | - | - | - | - |
| 1777512902 | 5° C | 53% | 1024 hPa | - | - | - | - |
| 1777511102 | 6.11° C | 49% | 1024 hPa | - | - | - | - |
| 1777509303 | 7.22° C | 46% | 1024 hPa | - | - | - | - |
| 1777507503 | 7.22° C | 46% | 1024 hPa | - | - | - | - |
| 1777505702 | 6.11° C | 66% | 1024 hPa | - | - | - | - |
| 1777503902 | 6.11° C | 66% | 1024 hPa | - | - | - | - |
| 1777502103 | 7.22° C | 61% | 1024 hPa | - | - | - | - |
| 1777500304 | 7.22° C | 53% | 1024 hPa | - | - | - | - |
| 1777498503 | 7.78° C | 50% | 1024 hPa | - | - | - | - |
| 1777496703 | 7.78° C | 50% | 1024 hPa | - | - | - | - |
| 1777494902 | 8.89° C | 43% | 1024 hPa | - | - | - | - |
| 1777493103 | 8.89° C | 43% | 1023 hPa | - | - | - | - |
| 1777491302 | 10° C | 37% | 1023 hPa | - | - | - | - |
| 1777489502 | 10° C | 37% | 1023 hPa | - | - | - | - |
| 1777487702 | 10° C | 37% | 1023 hPa | - | - | - | - |
| 1777485904 | 10° C | 37% | 1023 hPa | - | - | - | - |
| 1777484103 | 10° C | - | - | - | - | - | - |
| 1777482303 | 10° C | 37% | 1022 hPa | - | - | - | - |
| 1777480503 | 11.11° C | 32% | 1022 hPa | - | - | - | - |
* Rain since midnight (hover to see other rain measurements)
** Current wind speed in m/s (hover to see current wind gust speed)